createdAt,value
2023-03-02T00:02:13.253Z,95276.44
2023-03-02T00:04:49.149Z,95274.84
2023-03-02T00:07:19.942Z,95273.19
2023-03-02T00:09:46.623Z,95267.50
2023-03-02T00:12:13.482Z,95274.06
2023-03-02T00:14:40.165Z,95271.59
2023-03-02T00:17:07.977Z,95264.19
2023-03-02T00:19:34.577Z,95273.25
2023-03-02T00:22:01.353Z,95264.19
2023-03-02T00:24:27.934Z,95278.19
2023-03-02T00:26:54.491Z,95268.31
2023-03-02T00:29:20.968Z,95262.59
2023-03-02T00:31:47.532Z,95260.97
2023-03-02T00:34:14.040Z,95266.72
2023-03-02T00:36:40.835Z,95262.59
2023-03-02T00:39:07.667Z,95264.28
2023-03-02T00:41:34.187Z,95262.59
2023-03-02T00:44:00.698Z,95268.38
2023-03-02T00:46:28.538Z,95265.94
2023-03-02T00:48:55.694Z,95262.63
2023-03-02T00:51:22.244Z,95257.72
2023-03-02T00:53:48.736Z,95265.09
2023-03-02T00:56:15.175Z,95258.53
2023-03-02T00:58:41.712Z,95266.75
2023-03-02T01:01:10.534Z,95259.44
2023-03-02T01:03:37.105Z,95256.94
2023-03-02T01:06:04.739Z,95259.41
2023-03-02T01:08:31.646Z,95261.06
2023-03-02T01:11:01.250Z,95261.88
2023-03-02T01:13:28.175Z,95255.31
2023-03-02T01:16:02.418Z,95254.47
2023-03-02T01:18:28.952Z,95252.84
2023-03-02T01:21:03.203Z,95242.97
2023-03-02T01:23:29.762Z,95247.84
2023-03-02T01:25:57.041Z,95248.66
2023-03-02T01:28:23.929Z,95243.81
2023-03-02T01:30:50.562Z,95238.88
2023-03-02T01:33:17.045Z,95247.94
2023-03-02T01:35:47.066Z,95234.78
2023-03-02T01:38:14.043Z,95234.78
2023-03-02T01:40:40.546Z,95228.19
2023-03-02T01:43:12.186Z,95228.19
2023-03-02T01:46:03.334Z,95221.63
2023-03-02T01:48:35.178Z,95229.00
2023-03-02T01:51:02.569Z,95222.44
2023-03-02T01:53:31.334Z,95226.53
2023-03-02T01:55:58.334Z,95222.38
2023-03-02T01:58:25.415Z,95218.25
2023-03-02T02:00:52.843Z,95223.19
2023-03-02T02:03:22.231Z,95227.25
2023-03-02T02:05:58.775Z,95227.25
2023-03-02T02:08:25.459Z,95228.03
2023-03-02T02:10:53.069Z,95231.31
2023-03-02T02:13:19.737Z,95230.50
2023-03-02T02:15:46.284Z,95232.97
2023-03-02T02:18:12.797Z,95238.69
2023-03-02T02:20:47.466Z,95241.97
2023-03-02T02:23:29.402Z,95237.03
2023-03-02T02:26:02.418Z,95220.63
2023-03-02T02:28:36.106Z,95220.59
2023-03-02T02:31:14.795Z,95223.88
2023-03-02T02:33:45.664Z,95227.09
2023-03-02T02:36:19.630Z,95222.94
2023-03-02T02:38:48.558Z,95226.22
2023-03-02T02:41:21.213Z,95214.72
2023-03-02T02:43:47.946Z,95212.19
2023-03-02T02:46:14.526Z,95208.00
2023-03-02T02:48:41.490Z,95209.69
2023-03-02T02:51:09.729Z,95206.47
2023-03-02T02:53:50.128Z,95198.16
2023-03-02T02:56:17.602Z,95202.22
2023-03-02T02:58:47.570Z,95207.16
2023-03-02T03:01:15.864Z,95201.44
2023-03-02T03:03:47.296Z,95199.72
2023-03-02T03:06:18.053Z,95202.16
2023-03-02T03:08:44.470Z,95194.72
2023-03-02T03:11:13.442Z,95193.09
2023-03-02T03:13:41.292Z,95197.13
2023-03-02T03:16:10.463Z,95202.06
2023-03-02T03:18:37.074Z,95201.25
2023-03-02T03:21:03.697Z,95199.59
2023-03-02T03:23:30.497Z,95197.91
2023-03-02T03:25:57.473Z,95191.31
2023-03-02T03:28:24.008Z,95185.47
2023-03-02T03:30:50.520Z,95188.84
2023-03-02T03:33:17.200Z,95178.91
2023-03-02T03:35:43.865Z,95184.63
2023-03-02T03:38:10.346Z,95187.88
2023-03-02T03:40:37.011Z,95184.53
2023-03-02T03:43:04.251Z,95189.44
2023-03-02T03:45:31.008Z,95184.53
2023-03-02T03:47:57.712Z,95184.47
2023-03-02T03:50:24.663Z,95193.53
2023-03-02T03:52:51.319Z,95193.41
2023-03-02T03:55:18.053Z,95193.38
2023-03-02T03:57:44.656Z,95200.78
2023-03-02T04:00:14.996Z,95195.03
2023-03-02T04:02:41.861Z,95194.97
2023-03-02T04:05:09.407Z,95194.13
2023-03-02T04:07:37.415Z,95193.34
2023-03-02T04:10:05.107Z,95189.16
2023-03-02T04:12:35.628Z,95186.75
2023-03-02T04:15:02.904Z,95185.00
2023-03-02T04:17:29.495Z,95179.19
2023-03-02T04:19:56.208Z,95186.50
2023-03-02T04:22:22.826Z,95186.53
2023-03-02T04:24:49.919Z,95184.81
2023-03-02T04:27:16.876Z,95186.53
2023-03-02T04:29:44.865Z,95192.38
2023-03-02T04:32:14.588Z,95189.22
2023-03-02T04:34:41.192Z,95185.84
2023-03-02T04:37:07.793Z,95187.50
2023-03-02T04:39:34.245Z,95186.56
2023-03-02T04:42:00.817Z,95180.81
2023-03-02T04:44:27.309Z,95182.56
2023-03-02T04:46:53.936Z,95186.56
2023-03-02T04:49:20.629Z,95182.38
2023-03-02T04:51:48.701Z,95183.25
2023-03-02T04:54:21.169Z,95180.69
2023-03-02T04:56:48.655Z,95177.44
2023-03-02T04:59:20.159Z,95179.19
2023-03-02T05:01:47.192Z,95189.94
2023-03-02T05:04:13.969Z,95191.59
2023-03-02T05:06:40.715Z,95196.50
2023-03-02T05:09:07.180Z,95191.59
2023-03-02T05:11:34.146Z,95196.59
2023-03-02T05:14:03.508Z,95191.56
2023-03-02T05:16:32.762Z,95192.44
2023-03-02T05:19:01.605Z,95201.31
2023-03-02T05:21:28.232Z,95202.19
2023-03-02T05:23:55.430Z,95210.38
2023-03-02T05:26:22.265Z,95203.69
2023-03-02T05:28:48.973Z,95206.00
2023-03-02T05:31:23.318Z,95199.44
2023-03-02T05:33:49.969Z,95211.78
2023-03-02T05:36:18.998Z,95203.44
2023-03-02T05:38:46.592Z,95209.16
2023-03-02T05:41:13.307Z,95203.53
2023-03-02T05:43:39.856Z,95212.50
2023-03-02T05:46:06.496Z,95214.97
2023-03-02T05:48:33.393Z,95208.47
2023-03-02T05:51:00.074Z,95211.78
2023-03-02T05:53:26.743Z,95213.34
2023-03-02T05:55:53.475Z,95215.09
2023-03-02T05:58:20.653Z,95215.94
2023-03-02T06:00:48.144Z,95221.84
2023-03-02T06:03:15.595Z,95222.66
2023-03-02T06:05:42.603Z,95227.56
2023-03-02T06:08:09.441Z,95232.63
2023-03-02T06:10:36.247Z,95229.22
2023-03-02T06:13:02.856Z,95235.06
2023-03-02T06:15:29.827Z,95232.75
2023-03-02T06:17:59.101Z,95230.31
2023-03-02T06:20:26.077Z,95233.53
2023-03-02T06:22:53.186Z,95237.78
2023-03-02T06:25:23.650Z,95247.66
2023-03-02T06:27:51.703Z,95252.56
2023-03-02T06:30:21.503Z,95254.16
2023-03-02T06:32:48.041Z,95249.22
2023-03-02T06:35:14.809Z,95254.22
2023-03-02T06:37:44.062Z,95259.09
2023-03-02T06:40:12.012Z,95254.22
2023-03-02T06:42:39.457Z,95263.25
2023-03-02T06:45:07.200Z,95263.25
2023-03-02T06:47:34.072Z,95264.91
2023-03-02T06:50:00.674Z,95248.41
2023-03-02T06:52:27.635Z,95260.00
2023-03-02T06:54:55.005Z,95257.53
2023-03-02T06:57:21.561Z,95251.00
2023-03-02T06:59:48.232Z,95261.53
2023-03-02T07:02:14.703Z,95254.94
2023-03-02T07:04:41.243Z,95255.81
2023-03-02T07:07:07.946Z,95260.66
2023-03-02T07:09:34.721Z,95258.13
2023-03-02T07:12:01.535Z,95261.44
2023-03-02T07:14:28.262Z,95259.75
2023-03-02T07:16:57.423Z,95250.72
2023-03-02T07:19:24.043Z,95259.88
2023-03-02T07:21:50.671Z,95242.47
2023-03-02T07:24:17.228Z,95249.19
2023-03-02T07:26:43.992Z,95246.78
2023-03-02T07:29:10.582Z,95256.50
2023-03-02T07:31:37.136Z,95244.91
2023-03-02T07:34:03.773Z,95247.28
2023-03-02T07:36:30.373Z,95246.41
2023-03-02T07:38:57.575Z,95239.78
2023-03-02T07:41:24.078Z,95235.66
2023-03-02T07:43:50.697Z,95239.09
2023-03-02T07:46:17.229Z,95237.53
2023-03-02T07:48:43.757Z,95242.47
2023-03-02T07:51:10.451Z,95244.88
2023-03-02T07:53:36.999Z,95241.50
2023-03-02T07:56:11.001Z,95245.47
2023-03-02T07:58:37.892Z,95240.53
2023-03-02T08:01:04.692Z,95238.81
2023-03-02T08:03:31.205Z,95238.84
2023-03-02T08:05:57.988Z,95246.06
2023-03-02T08:08:24.636Z,95236.94
2023-03-02T08:10:51.166Z,95228.75
2023-03-02T08:13:17.815Z,95232.84
2023-03-02T08:15:44.430Z,95229.53
2023-03-02T08:18:10.922Z,95226.97
2023-03-02T08:20:37.710Z,95229.47
2023-03-02T08:23:04.200Z,95226.03
2023-03-02T08:25:30.670Z,95218.53
2023-03-02T08:27:57.588Z,95235.03
2023-03-02T08:30:24.100Z,95227.75
2023-03-02T08:32:50.809Z,95222.88
2023-03-02T08:35:17.516Z,95225.16
2023-03-02T08:37:44.007Z,95225.75
2023-03-02T08:40:11.097Z,95217.41
2023-03-02T08:42:37.942Z,95223.13
2023-03-02T08:45:04.854Z,95225.47
2023-03-02T08:47:32.424Z,95222.88
2023-03-02T08:49:59.004Z,95230.25
2023-03-02T08:52:25.580Z,95231.47
2023-03-02T08:54:52.134Z,95225.25
2023-03-02T08:57:19.750Z,95230.94
2023-03-02T08:59:47.762Z,95235.69
2023-03-02T09:02:14.362Z,95229.16
2023-03-02T09:04:41.184Z,95233.34
2023-03-02T09:07:07.809Z,95229.16
2023-03-02T09:09:34.420Z,95223.22
2023-03-02T09:12:00.935Z,95233.06
2023-03-02T09:14:27.831Z,95229.63
2023-03-02T09:16:54.524Z,95225.44
2023-03-02T09:19:21.269Z,95229.69
2023-03-02T09:21:48.061Z,95231.47
2023-03-02T09:24:14.587Z,95231.78
2023-03-02T09:26:41.204Z,95236.59
2023-03-02T09:29:08.040Z,95224.25
2023-03-02T09:31:36.085Z,95220.28
2023-03-02T09:34:04.332Z,95222.38
2023-03-02T09:36:32.774Z,95222.31
2023-03-02T09:38:59.529Z,95226.41
2023-03-02T09:41:59.771Z,95233.53
2023-03-02T09:44:35.399Z,95217.50
2023-03-02T09:47:05.202Z,95215.91
2023-03-02T09:49:50.429Z,95212.44
2023-03-02T09:52:19.835Z,95214.00
2023-03-02T09:54:46.300Z,95209.56
2023-03-02T09:57:24.784Z,95199.59
2023-03-02T10:00:06.635Z,95203.53
2023-03-02T10:03:05.137Z,95197.66
2023-03-02T10:05:43.147Z,95200.66
2023-03-02T10:08:22.009Z,95198.84
2023-03-02T10:10:51.187Z,95203.44
2023-03-02T10:13:26.509Z,95197.41
2023-03-02T10:15:58.821Z,95201.31
2023-03-02T10:18:35.823Z,95202.97
2023-03-02T10:21:27.253Z,95193.06
2023-03-02T10:24:42.462Z,95195.88
2023-03-02T10:27:19.093Z,95200.31
2023-03-02T10:29:51.558Z,95194.56
2023-03-02T10:32:26.553Z,95189.25
2023-03-02T10:34:53.835Z,95191.72
2023-03-02T10:37:29.721Z,95193.59
2023-03-02T10:39:59.173Z,95187.09
2023-03-02T10:42:37.561Z,95183.38
2023-03-02T10:45:27.420Z,95190.66
2023-03-02T10:48:09.249Z,95182.19
2023-03-02T10:50:36.819Z,95177.78
2023-03-02T10:53:06.876Z,95169.91
2023-03-02T10:55:34.429Z,95170.44
2023-03-02T10:58:25.983Z,95169.28
2023-03-02T11:00:58.115Z,95165.47
2023-03-02T11:03:24.784Z,95157.00
2023-03-02T11:05:51.445Z,95165.44
2023-03-02T11:08:23.424Z,95153.81
2023-03-02T11:11:03.697Z,95160.22
2023-03-02T11:13:35.472Z,95153.63
2023-03-02T11:16:03.123Z,95154.78
2023-03-02T11:18:29.559Z,95155.00
2023-03-02T11:21:05.585Z,95153.19
2023-03-02T11:24:02.677Z,95150.69
2023-03-02T11:26:46.133Z,95149.03
2023-03-02T11:29:20.979Z,95145.88
2023-03-02T11:31:56.171Z,95144.88
2023-03-02T11:34:54.435Z,95139.81
2023-03-02T11:37:36.833Z,95142.41
2023-03-02T11:40:09.094Z,95147.38
2023-03-02T11:42:39.036Z,95152.34
2023-03-02T11:45:16.707Z,95143.34
2023-03-02T11:47:57.415Z,95144.75
2023-03-02T11:50:28.323Z,95146.03
2023-03-02T11:52:58.900Z,95148.38
2023-03-02T11:55:30.269Z,95141.75
2023-03-02T12:00:37.409Z,95143.03
2023-03-02T12:03:07.223Z,95137.94
2023-03-02T12:05:37.115Z,95137.03
2023-03-02T12:08:07.479Z,95132.09
2023-03-02T12:10:40.413Z,95130.03
2023-03-02T12:13:15.745Z,95131.31
2023-03-02T12:15:45.393Z,95134.03
2023-03-02T12:18:21.178Z,95128.41
2023-03-02T12:21:07.660Z,95131.28
2023-03-02T12:23:36.698Z,95128.72
2023-03-02T12:26:09.438Z,95126.97
2023-03-02T12:28:38.906Z,95118.56
2023-03-02T12:31:12.455Z,95123.16
2023-03-02T12:33:49.179Z,95117.47
2023-03-02T12:36:27.527Z,95120.47
2023-03-02T12:39:06.277Z,95116.19
2023-03-02T12:41:51.166Z,95122.59
2023-03-02T12:44:33.770Z,95113.38
2023-03-02T12:47:02.942Z,95110.97
2023-03-02T12:49:50.597Z,95100.97
2023-03-02T12:52:34.611Z,95109.66
2023-03-02T12:55:04.522Z,95100.72
2023-03-02T12:57:31.853Z,95090.16
2023-03-02T13:00:01.942Z,95096.19
2023-03-02T13:02:36.330Z,95091.31
2023-03-02T13:05:07.167Z,95094.00
2023-03-02T13:07:41.373Z,95094.31
2023-03-02T13:10:38.189Z,95093.91
2023-03-02T13:13:17.008Z,95088.78
2023-03-02T13:15:52.658Z,95088.78
2023-03-02T13:18:23.540Z,95091.84
2023-03-02T13:20:50.600Z,95084.44
2023-03-02T13:23:18.249Z,95086.72
2023-03-02T13:25:52.514Z,95072.88
2023-03-02T13:28:35.086Z,95075.44
2023-03-02T13:31:04.412Z,95080.41
2023-03-02T13:33:32.202Z,95071.41
2023-03-02T13:35:59.138Z,95070.47
2023-03-02T13:38:28.228Z,95069.72
2023-03-02T13:40:56.044Z,95071.22
2023-03-02T13:43:34.581Z,95068.91
2023-03-02T13:46:03.750Z,95071.06
2023-03-02T13:48:31.012Z,95061.41
2023-03-02T13:51:15.576Z,95055.78
2023-03-02T13:53:50.668Z,95057.25
2023-03-02T13:56:18.350Z,95052.88
2023-03-02T13:58:45.321Z,95049.34
2023-03-02T14:01:13.066Z,95045.94
2023-03-02T14:03:39.740Z,95033.31
2023-03-02T14:06:07.397Z,95040.53
2023-03-02T14:08:33.986Z,95040.03
2023-03-02T14:11:01.490Z,95024.47
2023-03-02T14:13:37.673Z,95023.91
2023-03-02T14:16:04.610Z,95018.91
2023-03-02T14:18:40.499Z,95019.00
2023-03-02T14:21:12.358Z,95012.19
2023-03-02T14:23:41.107Z,95011.47
2023-03-02T14:26:26.383Z,95003.44
2023-03-02T14:29:04.554Z,95000.69
2023-03-02T14:31:32.227Z,94999.38
2023-03-02T14:33:58.925Z,95004.97
2023-03-02T14:36:34.890Z,95002.41
2023-03-02T14:39:05.044Z,94991.38
2023-03-02T14:41:34.440Z,94993.00
2023-03-02T14:44:05.102Z,94999.72
2023-03-02T14:46:31.685Z,94993.88
2023-03-02T14:48:58.166Z,94987.25
2023-03-02T14:51:27.175Z,94984.31
2023-03-02T14:53:56.055Z,94984.06
2023-03-02T14:56:56.281Z,94988.84
2023-03-02T14:59:22.810Z,94985.63
2023-03-02T15:01:49.527Z,94984.16
2023-03-02T15:04:16.284Z,94972.97
2023-03-02T15:06:43.162Z,94975.53
2023-03-02T15:09:10.996Z,94982.88
2023-03-02T15:11:37.433Z,94976.06
2023-03-02T15:14:03.944Z,94971.75
2023-03-02T15:16:30.814Z,94970.84
2023-03-02T15:18:58.901Z,94972.13
2023-03-02T15:21:25.601Z,94963.69
2023-03-02T15:23:52.348Z,94968.13
2023-03-02T15:26:18.969Z,94957.03
2023-03-02T15:28:45.694Z,94956.25
2023-03-02T15:31:16.616Z,94961.09
2023-03-02T15:33:45.144Z,94953.69
2023-03-02T15:36:12.588Z,94953.66
2023-03-02T15:38:39.634Z,94957.22
2023-03-02T15:41:08.662Z,94954.03
2023-03-02T15:43:35.294Z,94946.00
2023-03-02T15:46:02.325Z,94957.53
2023-03-02T17:59:16.845Z,94903.34
2023-03-02T18:01:44.040Z,94905.75
2023-03-02T18:04:10.587Z,94908.13
2023-03-02T18:06:37.278Z,94903.94
2023-03-02T18:09:03.933Z,94905.56
2023-03-02T18:11:30.447Z,94907.09
2023-03-02T18:13:58.032Z,94907.94
2023-03-02T18:16:26.251Z,94907.22
2023-03-02T18:18:54.060Z,94902.19
2023-03-02T18:21:21.202Z,94900.63
2023-03-02T18:23:47.671Z,94903.81
2023-03-02T18:26:18.238Z,94912.94
2023-03-02T18:28:44.983Z,94903.09
2023-03-02T18:31:15.191Z,94896.66
2023-03-02T18:33:42.137Z,94909.72
2023-03-02T18:36:09.459Z,94901.47
2023-03-02T18:38:36.444Z,94903.09
2023-03-02T18:41:04.831Z,94913.75
2023-03-02T18:43:34.895Z,94906.41
2023-03-02T18:46:04.068Z,94907.31
2023-03-02T18:48:31.391Z,94908.88
2023-03-02T18:50:58.540Z,94913.00
2023-03-02T18:53:25.745Z,94910.50
2023-03-02T18:55:55.519Z,94903.09
2023-03-02T18:58:23.411Z,94906.25
2023-03-02T19:00:49.911Z,94901.22
2023-03-02T19:03:17.480Z,94899.59
2023-03-02T19:05:44.764Z,94900.38
2023-03-02T19:08:11.896Z,94904.50
2023-03-02T19:10:39.525Z,94902.84
2023-03-02T19:13:06.142Z,94893.03
2023-03-02T19:15:34.809Z,94901.22
2023-03-02T19:18:01.557Z,94903.72
2023-03-02T19:20:28.377Z,94892.38
2023-03-02T19:22:55.407Z,94890.00
2023-03-02T19:25:22.416Z,94894.09
2023-03-02T19:27:49.009Z,94893.34
2023-03-02T19:30:23.459Z,94891.78
2023-03-02T19:32:53.826Z,94888.50
2023-03-02T19:35:22.520Z,94885.19
2023-03-02T19:37:49.059Z,94888.53
2023-03-02T19:40:17.981Z,94887.72
2023-03-02T19:42:45.852Z,94892.69
2023-03-02T19:45:17.898Z,94891.22
2023-03-02T19:47:45.520Z,94886.28
2023-03-02T19:50:13.733Z,94887.13
2023-03-02T19:52:40.662Z,94886.28
2023-03-02T19:55:10.668Z,94891.28
2023-03-02T19:57:38.123Z,94892.06
2023-03-02T20:00:07.662Z,94887.22
2023-03-02T20:02:36.183Z,94889.75
2023-03-02T20:05:03.876Z,94883.16
2023-03-02T20:07:30.337Z,94888.09
2023-03-02T20:09:56.950Z,94888.06
2023-03-02T20:12:23.439Z,94889.75
2023-03-02T20:14:51.168Z,94892.16
2023-03-02T20:17:19.778Z,94886.44
2023-03-02T20:19:47.524Z,94885.69
2023-03-02T20:22:14.950Z,94883.19
2023-03-02T20:24:43.117Z,94889.78
2023-03-02T20:27:11.517Z,94885.69
2023-03-02T20:29:40.208Z,94884.91
2023-03-02T20:32:09.105Z,94876.69
2023-03-02T20:34:41.193Z,94870.91
2023-03-02T20:37:08.062Z,94880.00
2023-03-02T20:39:41.601Z,94876.56
2023-03-02T20:42:09.267Z,94876.56
2023-03-02T20:44:36.352Z,94876.66
2023-03-02T20:47:10.852Z,94874.22
2023-03-02T20:49:37.673Z,94859.50
2023-03-02T20:52:05.481Z,94866.91
2023-03-02T20:54:36.384Z,94853.78
2023-03-02T20:57:05.450Z,94853.84
2023-03-02T20:59:32.517Z,94853.84
2023-03-02T21:01:59.423Z,94846.47
2023-03-02T21:04:26.303Z,94853.09
2023-03-02T21:06:53.123Z,94846.44
2023-03-02T21:09:20.262Z,94848.97
2023-03-02T21:11:47.340Z,94845.63
2023-03-02T21:14:15.097Z,94846.47
2023-03-02T21:16:44.062Z,94838.34
2023-03-02T21:19:14.016Z,94844.06
2023-03-02T21:21:42.179Z,94841.59
2023-03-02T21:24:10.704Z,94836.78
2023-03-02T21:26:37.347Z,94834.34
2023-03-02T21:29:05.336Z,94826.13
2023-03-02T21:31:32.028Z,94821.16
2023-03-02T21:34:00.065Z,94817.09
2023-03-02T21:36:27.278Z,94820.38
2023-03-02T21:38:54.027Z,94815.47
2023-03-02T21:41:20.702Z,94813.84
2023-03-02T21:43:48.374Z,94809.69
2023-03-02T21:46:19.353Z,94817.06
2023-03-02T21:48:46.772Z,94806.34
2023-03-02T21:51:15.139Z,94817.09
2023-03-02T21:53:41.881Z,94805.56
2023-03-02T21:56:09.605Z,94799.84
2023-03-02T21:58:36.208Z,94800.69
2023-03-02T22:01:02.899Z,94803.06
2023-03-02T22:03:29.351Z,94803.06
2023-03-02T22:05:56.070Z,94799.00
2023-03-02T22:08:22.759Z,94809.63
2023-03-02T22:10:50.517Z,94804.75
2023-03-02T22:13:26.400Z,94810.44
2023-03-02T22:16:05.880Z,94804.72
2023-03-02T22:18:32.413Z,94803.06
2023-03-02T22:20:58.930Z,94799.88
2023-03-02T22:23:26.962Z,94801.47
2023-03-02T22:25:56.319Z,94802.41
2023-03-02T22:28:25.384Z,94797.47
2023-03-02T22:30:52.604Z,94798.31
2023-03-02T22:33:24.906Z,94801.59
2023-03-02T22:35:53.209Z,94801.50
2023-03-02T22:38:25.184Z,94804.00
2023-03-02T22:40:53.043Z,94798.25
2023-03-02T22:43:26.482Z,94799.06
2023-03-02T22:45:54.156Z,94799.91
2023-03-02T22:48:22.421Z,94791.72
2023-03-02T22:50:50.066Z,94784.47
2023-03-02T22:53:49.869Z,94793.38
2023-03-02T22:56:37.546Z,94792.53
2023-03-02T22:59:07.542Z,94791.81
2023-03-02T23:01:42.529Z,94793.47
2023-03-02T23:04:16.213Z,94784.53
2023-03-02T23:06:45.250Z,94771.41
2023-03-02T23:09:14.715Z,94769.81
2023-03-02T23:11:42.024Z,94773.94
2023-03-02T23:14:23.592Z,94778.88
2023-03-02T23:17:31.956Z,94764.16
2023-03-02T23:19:58.836Z,94773.06
2023-03-02T23:22:28.495Z,94759.16
2023-03-02T23:24:55.958Z,94758.34
2023-03-02T23:27:24.280Z,94754.28
2023-03-02T23:29:51.899Z,94759.13
2023-03-02T23:32:19.525Z,94755.84
2023-03-02T23:34:46.296Z,94754.22
2023-03-02T23:37:12.928Z,94750.19
2023-03-02T23:39:39.564Z,94749.34
2023-03-02T23:42:06.186Z,94748.56
2023-03-02T23:44:32.646Z,94747.75
2023-03-02T23:46:59.567Z,94752.63
2023-03-02T23:49:26.133Z,94750.19
2023-03-02T23:51:52.767Z,94742.00
2023-03-02T23:54:19.412Z,94742.81
2023-03-02T23:56:45.964Z,94746.94
2023-03-02T23:59:12.509Z,94735.53
